Logan, UT

2:53 AM MDT on July 28, 2016 (GMT -0600)
Logan 1000N 600W | | Change Station

Elev 4482 ft 41.75 °N, 111.85 °W | Updated 6 minutes ago

Clear
Clear
69.4 °F
Feels Like 69.4 °F
N
0.6
Wind Variable Wind from West

Today
High -- | Low -- °F
--% Chance of Precip.
Yesterday
High -- | Low -- °F
Precip. -- in
Pressure 29.88 in
Visibility 10.0 miles
Clouds Clear
Dew Point 47 °F
Humidity 45%
Rainfall Not available.
Snow Depth Not available.
6:18 AM 8:48 PM
Waning Crescent, 34% visible
METAR KLGU 280851Z AUTO 21003KT 10SM CLR 19/08 A3007 RMK AO2 SLP119 T01890078 50001
Pressure 29.88 in
Visibility 10.0 miles
Clouds Clear
Dew Point 47 °F
Humidity 45%
Rainfall Not available.
Snow Depth Not available.
6:18 AM 8:48 PM
Waning Crescent, 34% visible
METAR KLGU 280851Z AUTO 21003KT 10SM CLR 19/08 A3007 RMK AO2 SLP119 T01890078 50001

10-Day Weather Forecast

Almanac

Astronomy

Jul. 28, 2016 Rise Set
Actual Time
Civil Twilight
Nautical Twilight
Astronomical Twilight
Moon
Length of Visible Light
Length of Day
Tomorrow will be .
, % of the Moon is Illuminated

Today's Extremes

State Highs State Lows

Community

WunderPhotos

Upload Photos

1,928,070 photos uploaded!

WunderBlog® & News

Nearby

Air Quality

  Air Quality AQ Index Pollutant
Not available.

Snow Depth

Station Depth Elevation

Earthquake Activity

City Distance Mag. Time & Date
Minimum magnitude displayed is 2.5.

Coastal Water Temperatures

Place Temperature

Stations

Nearby Weather Stations

Station Location Temp. Windchill Dew Point Humidity Wind Precip. Elev Updated Type
                   

Watches & Warnings

There are currently no watches in effect.